Time;durP1;ratioP1;P1;durP2;ratioP2;P2;SDS_P1;SDS_P2;PMS_P1;PMS_P2;Temp;Humidity;BMP_temperature;BMP_pressure;BME280_temperature;BME280_humidity;BME280_pressure;Samples;Min_cycle;Max_cycle;Signal;HPM_P1;HPM_P2
2023/05/29 00:00:21;;;;;;;13.75;6.70;;;15.10;32.20;;;;;;5098984;28;20027;-73
2023/05/29 00:02:50;;;;;;;10.25;6.60;;;15.00;35.40;;;;;;5065102;28;20395;-73
2023/05/29 00:05:17;;;;;;;10.88;7.35;;;14.80;40.20;;;;;;5081633;28;20166;-73
2023/05/29 00:07:43;;;;;;;14.18;6.60;;;14.80;41.70;;;;;;5081841;28;20047;-74
2023/05/29 00:10:11;;;;;;;12.95;6.55;;;14.80;41.40;;;;;;5082183;28;20360;-74
2023/05/29 00:12:37;;;;;;;12.82;6.45;;;14.80;38.80;;;;;;5098714;28;20075;-74
2023/05/29 00:15:04;;;;;;;10.60;6.75;;;14.80;37.90;;;;;;5098646;28;20364;-73
2023/05/29 00:17:33;;;;;;;11.15;6.50;;;14.70;40.10;;;;;;5081759;28;20035;-73
2023/05/29 00:20:01;;;;;;;9.68;5.95;;;14.70;41.80;;;;;;5098737;28;20105;-74
2023/05/29 00:22:27;;;;;;;10.00;6.10;;;14.70;41.10;;;;;;5098483;28;20046;-74
2023/05/29 00:24:53;;;;;;;10.55;6.47;;;14.70;41.00;;;;;;5081615;28;20024;-73
2023/05/29 00:27:19;;;;;;;11.55;6.72;;;14.60;39.70;;;;;;5081601;28;20109;-74
2023/05/29 00:29:46;;;;;;;9.15;6.10;;;14.50;44.90;;;;;;5098454;28;20016;-74
2023/05/29 00:32:12;;;;;;;10.93;5.85;;;14.50;46.80;;;;;;5098329;28;20032;-74
2023/05/29 00:34:37;;;;;;;13.27;6.20;;;14.50;46.60;;;;;;5098375;28;20028;-73
2023/05/29 00:37:04;;;;;;;10.63;6.28;;;14.50;39.40;;;;;;5048047;28;20036;-74
2023/05/29 00:39:30;;;;;;;11.05;6.45;;;14.50;42.40;;;;;;5081380;28;20164;-73
2023/05/29 00:41:56;;;;;;;11.48;6.03;;;14.30;45.30;;;;;;5081351;28;20082;-73
2023/05/29 00:44:23;;;;;;;14.38;6.38;;;14.20;49.40;;;;;;5098146;28;20028;-74
2023/05/29 00:46:52;;;;;;;12.85;5.80;;;14.20;50.40;;;;;;5098584;28;20028;-73
2023/05/29 00:49:20;;;;;;;10.88;6.22;;;14.00;53.20;;;;;;5098718;28;20046;-73
2023/05/29 00:51:47;;;;;;;14.32;5.75;;;13.90;58.00;;;;;;5097805;28;20024;-73
2023/05/29 00:54:26;;;;;;;10.07;6.03;;;14.00;58.20;;;;;;5081221;28;20045;-73
2023/05/29 00:56:52;;;;;;;12.32;5.72;;;14.00;51.20;;;;;;5097904;28;20035;-73
2023/05/29 00:59:21;;;;;;;11.40;5.18;;;14.00;52.50;;;;;;5081091;28;20028;-73
2023/05/29 01:01:50;;;;;;;15.75;6.13;;;14.10;47.30;;;;;;5081125;28;20268;-73
2023/05/29 01:04:17;;;;;;;10.43;5.13;;;14.00;47.50;;;;;;5097566;28;20024;-73
2023/05/29 01:06:43;;;;;;;11.23;5.15;;;14.00;45.80;;;;;;5097601;28;20441;-73
2023/05/29 01:09:14;;;;;;;13.77;5.13;;;13.90;45.40;;;;;;5064272;28;20036;-73
2023/05/29 01:11:42;;;;;;;13.98;4.75;;;13.80;46.80;;;;;;5082135;28;20043;-73
2023/05/29 01:14:11;;;;;;;12.02;4.70;;;13.90;41.80;;;;;;5097372;28;20118;-73
2023/05/29 01:16:48;;;;;;;11.57;4.40;;;13.70;44.90;;;;;;5097161;28;20023;-73
2023/05/29 01:19:43;;;;;;;10.88;4.32;;;13.60;49.20;;;;;;5098185;28;20098;-72
2023/05/29 01:22:15;;;;;;;10.95;4.10;;;13.50;45.60;;;;;;5097438;28;20059;-72
2023/05/29 01:24:58;;;;;;;9.35;4.30;;;13.60;44.90;;;;;;5098604;28;20127;-73
2023/05/29 01:27:26;;;;;;;9.23;3.85;;;13.60;37.00;;;;;;5097509;28;20030;-72
2023/05/29 01:29:54;;;;;;;12.68;3.78;;;13.50;34.20;;;;;;5080298;28;20034;-73
2023/05/29 01:32:22;;;;;;;12.20;3.67;;;13.50;33.60;;;;;;5080336;28;20039;-72
2023/05/29 01:34:48;;;;;;;9.07;4.00;;;13.50;32.00;;;;;;5097986;28;20027;-72
2023/05/29 01:37:14;;;;;;;10.18;3.25;;;13.50;29.20;;;;;;5080779;28;20119;-72
2023/05/29 01:39:40;;;;;;;17.95;3.78;;;13.40;22.20;;;;;;5063534;28;20406;-72
2023/05/29 01:42:06;;;;;;;8.73;3.55;;;13.30;25.30;;;;;;5080128;28;20115;-71
2023/05/29 01:44:35;;;;;;;12.98;3.67;;;13.20;24.10;;;;;;5080290;28;20391;-72
2023/05/29 01:47:02;;;;;;;11.57;3.15;;;13.20;24.30;;;;;;5097679;28;20111;-72
2023/05/29 01:49:29;;;;;;;11.82;2.97;;;13.30;19.00;;;;;;5080903;28;20338;-71
2023/05/29 01:51:55;;;;;;;11.75;3.20;;;13.20;13.20;;;;;;5096802;28;20361;-71
2023/05/29 01:54:21;;;;;;;14.63;3.13;;;13.10;22.00;;;;;;5096805;28;20036;-71
2023/05/29 01:56:47;;;;;;;13.20;3.20;;;13.10;18.70;;;;;;5080153;28;20032;-71
2023/05/29 01:59:14;;;;;;;12.07;3.47;;;13.10;14.20;;;;;;5079876;28;20123;-73
2023/05/29 02:01:40;;;;;;;16.88;3.20;;;12.90;19.10;;;;;;5079991;28;20441;-72
2023/05/29 02:04:07;;;;;;;9.95;2.85;;;12.90;18.40;;;;;;5097539;28;20391;-72
2023/05/29 02:06:33;;;;;;;8.68;2.92;;;13.00;12.20;;;;;;5097417;28;20161;-71
2023/05/29 02:08:59;;;;;;;14.77;3.17;;;12.90;12.90;;;;;;5063338;28;20028;-71
2023/05/29 02:11:26;;;;;;;16.20;3.38;;;13.00;8.40;;;;;;5079726;28;20039;-72
2023/05/29 02:13:52;;;;;;;14.48;3.30;;;13.00;6.80;;;;;;5079567;28;20024;-72
2023/05/29 02:16:20;;;;;;;12.35;2.97;;;12.90;9.40;;;;;;5079794;28;20028;-72
2023/05/29 02:18:46;;;;;;;11.10;2.53;;;12.80;10.80;;;;;;5079645;28;20040;-72
2023/05/29 02:21:13;;;;;;;11.05;3.10;;;12.70;10.60;;;;;;5096665;28;20036;-72
2023/05/29 02:23:39;;;;;;;9.73;2.88;;;12.80;9.20;;;;;;5062914;28;20036;-72
2023/05/29 02:26:05;;;;;;;13.82;2.97;;;12.70;11.00;;;;;;5079325;28;20445;-71
2023/05/29 02:28:31;;;;;;;11.95;3.30;;;12.70;10.60;;;;;;5079533;28;20378;-72
2023/05/29 02:30:57;;;;;;;17.15;3.10;;;12.60;11.10;;;;;;5097655;28;20028;-72
2023/05/29 02:33:22;;;;;;;9.15;2.70;;;12.60;16.00;;;;;;5062818;28;20339;-71
2023/05/29 02:35:48;;;;;;;14.32;2.97;;;12.60;14.20;;;;;;5096283;28;20119;-72
2023/05/29 02:38:14;;;;;;;7.85;2.67;;;12.60;15.30;;;;;;5079460;28;20123;-72
2023/05/29 02:40:40;;;;;;;12.30;3.00;;;12.60;12.80;;;;;;5096979;28;20039;-72
2023/05/29 02:43:07;;;;;;;12.25;3.03;;;12.50;16.10;;;;;;5096321;28;20043;-71
2023/05/29 02:45:33;;;;;;;12.43;3.00;;;12.40;17.20;;;;;;5079530;28;20020;-71
2023/05/29 02:47:59;;;;;;;14.68;2.80;;;12.30;20.40;;;;;;5079519;28;20028;-70
2023/05/29 02:50:30;;;;;;;11.77;2.85;;;12.30;20.10;;;;;;5096321;28;20116;-72
2023/05/29 02:52:56;;;;;;;9.85;2.45;;;12.30;23.40;;;;;;5063349;28;20028;-72
2023/05/29 02:55:21;;;;;;;12.25;2.90;;;12.40;20.60;;;;;;5096068;28;20050;-72
2023/05/29 02:57:50;;;;;;;15.68;3.78;;;12.40;19.30;;;;;;5096222;28;20055;-71
2023/05/29 03:00:18;;;;;;;15.05;2.83;;;12.30;19.10;;;;;;5096251;28;20039;-72
2023/05/29 03:02:44;;;;;;;10.80;2.60;;;12.30;19.30;;;;;;5079386;28;20124;-72
2023/05/29 03:05:11;;;;;;;14.70;3.17;;;12.30;18.70;;;;;;5096089;28;20028;-72
2023/05/29 03:07:37;;;;;;;14.10;2.88;;;12.40;17.80;;;;;;5095800;28;20113;-72
2023/05/29 03:10:03;;;;;;;12.82;3.15;;;12.30;14.40;;;;;;5095926;28;20399;-72
2023/05/29 03:12:29;;;;;;;14.85;3.03;;;12.30;15.70;;;;;;5079022;28;20072;-72
2023/05/29 03:14:56;;;;;;;15.45;3.45;;;12.10;20.50;;;;;;5096003;28;20435;-72
2023/05/29 03:17:22;;;;;;;11.60;3.35;;;12.10;22.00;;;;;;5095787;28;20097;-71
2023/05/29 03:19:48;;;;;;;15.73;2.63;;;12.10;17.70;;;;;;5097336;28;20036;-71
2023/05/29 03:22:14;;;;;;;11.35;2.83;;;12.00;20.70;;;;;;5045883;28;20111;-72
2023/05/29 03:24:41;;;;;;;17.13;3.47;;;12.10;17.50;;;;;;5095744;28;20060;-72
2023/05/29 03:27:08;;;;;;;10.80;2.75;;;12.00;17.00;;;;;;5095780;28;20082;-72
2023/05/29 03:29:35;;;;;;;15.40;2.72;;;12.00;18.80;;;;;;5095909;28;20039;-71
2023/05/29 03:32:02;;;;;;;10.35;2.60;;;12.00;17.00;;;;;;5079128;28;20181;-72
2023/05/29 03:34:31;;;;;;;9.50;2.60;;;11.90;19.40;;;;;;5063058;28;20032;-72
2023/05/29 03:36:58;;;;;;;9.77;3.17;;;11.90;21.10;;;;;;5062709;28;20032;-72
2023/05/29 03:39:26;;;;;;;12.65;3.25;;;11.80;23.60;;;;;;5097651;28;20333;-72
2023/05/29 03:41:52;;;;;;;14.65;3.10;;;11.80;23.60;;;;;;5082408;28;20124;-71
2023/05/29 03:44:18;;;;;;;12.43;2.70;;;11.90;23.40;;;;;;5082177;28;20089;-72
2023/05/29 03:46:44;;;;;;;12.60;2.90;;;11.90;24.30;;;;;;5099266;28;20028;-71
2023/05/29 03:49:10;;;;;;;13.70;3.15;;;11.90;22.70;;;;;;5082289;28;20123;-72
2023/05/29 03:51:37;;;;;;;13.82;3.47;;;11.90;24.20;;;;;;5082056;28;20029;-72
2023/05/29 03:54:04;;;;;;;14.75;2.95;;;11.90;24.30;;;;;;5099085;28;20046;-72
2023/05/29 03:56:30;;;;;;;9.02;2.75;;;11.90;22.60;;;;;;5065533;28;20028;-71
2023/05/29 03:58:56;;;;;;;17.35;3.17;;;12.00;22.10;;;;;;5082247;28;20388;-72
2023/05/29 04:01:22;;;;;;;14.93;2.88;;;11.90;22.80;;;;;;5082298;28;20054;-71
2023/05/29 04:03:47;;;;;;;15.10;2.90;;;11.80;26.30;;;;;;5081921;28;20059;-72
2023/05/29 04:06:14;;;;;;;11.48;2.60;;;11.70;29.10;;;;;;5082067;28;20017;-73
2023/05/29 04:08:40;;;;;;;13.27;3.05;;;11.70;33.40;;;;;;5099307;28;20063;-72
2023/05/29 04:11:06;;;;;;;12.82;2.65;;;11.70;32.50;;;;;;5081914;28;20032;-72
2023/05/29 04:13:31;;;;;;;13.80;2.95;;;11.80;30.20;;;;;;5082525;28;20038;-72
2023/05/29 04:15:57;;;;;;;11.85;3.05;;;11.90;28.10;;;;;;5098644;28;20028;-71
2023/05/29 04:18:23;;;;;;;10.40;2.88;;;11.90;24.40;;;;;;5098734;28;20040;-71
2023/05/29 04:20:49;;;;;;;13.38;2.75;;;11.90;26.20;;;;;;5081705;28;20127;-72
2023/05/29 04:23:15;;;;;;;11.98;2.67;;;12.00;26.60;;;;;;5081678;28;20339;-71
2023/05/29 04:25:44;;;;;;;15.82;2.85;;;11.90;30.00;;;;;;5082061;28;20028;-72
2023/05/29 04:28:11;;;;;;;17.38;3.13;;;11.70;31.90;;;;;;5065468;28;20040;-72
2023/05/29 04:30:39;;;;;;;15.60;3.30;;;11.60;37.60;;;;;;5081756;28;20303;-72
2023/05/29 04:33:05;;;;;;;16.63;3.47;;;11.60;42.10;;;;;;5081429;28;20040;-72
2023/05/29 04:35:32;;;;;;;16.45;2.80;;;11.70;38.10;;;;;;5081801;28;20122;-72
2023/05/29 04:38:04;;;;;;;14.60;3.30;;;11.70;39.20;;;;;;5081923;28;20039;-71
2023/05/29 04:40:32;;;;;;;13.90;2.88;;;11.80;39.00;;;;;;5098379;28;20356;-73
2023/05/29 04:43:01;;;;;;;13.10;2.78;;;11.80;33.70;;;;;;5098063;28;20035;-71
2023/05/29 04:45:32;;;;;;;18.70;2.97;;;11.80;29.80;;;;;;5067168;28;20462;-72
2023/05/29 04:47:58;;;;;;;17.10;3.50;;;11.80;37.40;;;;;;5099040;28;20047;-72
2023/05/29 04:50:27;;;;;;;13.45;2.97;;;11.90;31.80;;;;;;5081211;28;20043;-71
2023/05/29 04:52:54;;;;;;;15.32;3.03;;;11.90;30.60;;;;;;5081378;28;20039;-71
2023/05/29 04:55:20;;;;;;;13.63;2.45;;;11.80;33.70;;;;;;5097976;28;20043;-72
2023/05/29 04:57:46;;;;;;;16.10;2.60;;;11.80;39.60;;;;;;5097786;28;20131;-71
2023/05/29 05:00:14;;;;;;;18.13;3.53;;;11.70;41.60;;;;;;5080908;28;20118;-72
2023/05/29 05:02:44;;;;;;;12.20;3.13;;;11.80;40.50;;;;;;5097550;28;20036;-72
2023/05/29 05:05:11;;;;;;;17.17;3.15;;;11.90;37.40;;;;;;5097480;28;20172;-72
2023/05/29 05:07:37;;;;;;;19.13;3.60;;;11.90;35.00;;;;;;5080486;28;20075;-72
2023/05/29 05:10:04;;;;;;;15.85;2.85;;;12.00;31.10;;;;;;5098264;28;20028;-72
2023/05/29 05:12:31;;;;;;;17.92;2.88;;;12.00;33.80;;;;;;5097425;28;20430;-72
2023/05/29 05:14:58;;;;;;;17.92;3.20;;;12.00;33.80;;;;;;5097347;28;20028;-72
2023/05/29 05:17:24;;;;;;;17.25;3.85;;;12.00;30.00;;;;;;5098109;28;20081;-72
2023/05/29 05:19:52;;;;;;;14.18;2.60;;;12.10;27.70;;;;;;5098093;28;20110;-72
2023/05/29 05:22:18;;;;;;;13.93;3.40;;;12.10;24.60;;;;;;5097991;28;20040;-72
2023/05/29 05:24:43;;;;;;;10.23;2.50;;;12.20;24.40;;;;;;5097880;28;20078;-71
2023/05/29 05:27:09;;;;;;;16.92;2.92;;;12.10;21.20;;;;;;5098533;28;20051;-72
2023/05/29 05:29:35;;;;;;;14.65;2.72;;;12.20;24.60;;;;;;5080245;28;20058;-71
2023/05/29 05:32:01;;;;;;;14.65;3.20;;;12.20;20.00;;;;;;5097729;28;20035;-72
2023/05/29 05:34:30;;;;;;;14.05;2.63;;;12.30;19.30;;;;;;5097771;28;20024;-72
2023/05/29 05:36:56;;;;;;;12.75;2.60;;;12.40;15.10;;;;;;5080862;28;20411;-72
2023/05/29 05:39:22;;;;;;;14.82;2.95;;;12.40;6.80;;;;;;5097908;28;20477;-72
2023/05/29 05:41:48;;;;;;;15.05;3.10;;;12.30;11.70;;;;;;5097777;28;20024;-72
2023/05/29 05:44:22;;;;;;;12.85;3.25;;;12.40;8.30;;;;;;5096903;28;20032;-72
2023/05/29 05:46:50;;;;;;;10.10;2.50;;;12.30;14.30;;;;;;5097792;28;20403;-72
2023/05/29 05:49:17;;;;;;;11.38;2.10;;;12.40;5.90;;;;;;5097283;28;20305;-71
2023/05/29 05:51:43;;;;;;;13.60;2.47;;;12.40;4.00;;;;;;5096990;28;20032;-71
2023/05/29 05:54:09;;;;;;;12.93;2.85;;;12.60;1.00;;;;;;5097475;28;20039;-70
2023/05/29 05:56:35;;;;;;;8.40;2.20;;;12.60;1.00;;;;;;5096678;28;20127;-71
2023/05/29 05:59:01;;;;;;;12.90;2.35;;;12.80;1.00;;;;;;5097336;28;20063;-71
2023/05/29 06:01:28;;;;;;;14.63;2.53;;;12.60;1.00;;;;;;5079229;28;20028;-71
2023/05/29 06:03:54;;;;;;;11.15;2.13;;;12.80;1.00;;;;;;5096382;28;20040;-71
2023/05/29 06:06:20;;;;;;;10.02;2.20;;;13.00;1.00;;;;;;5079649;28;20364;-71
2023/05/29 06:08:48;;;;;;;10.00;2.40;;;13.00;1.00;;;;;;5096662;28;20036;-71
2023/05/29 06:11:14;;;;;;;13.80;3.05;;;13.10;1.00;;;;;;5097161;28;20083;-71
2023/05/29 06:13:43;;;;;;;8.73;2.08;;;13.20;1.00;;;;;;5096398;28;20040;-71
2023/05/29 06:16:19;;;;;;;14.45;3.05;;;13.20;1.00;;;;;;5081339;28;20086;-70
2023/05/29 06:18:45;;;;;;;14.48;2.33;;;13.30;1.00;;;;;;5096330;28;20036;-71
2023/05/29 06:21:14;;;;;;;8.35;2.17;;;13.30;1.00;;;;;;5096337;28;20040;-72
2023/05/29 06:23:47;;;;;;;11.32;2.30;;;13.30;1.00;;;;;;5080524;28;20040;-73
2023/05/29 06:26:15;;;;;;;11.82;2.38;;;13.20;1.00;;;;;;5096574;28;20045;-72
2023/05/29 06:28:41;;;;;;;14.23;2.85;;;13.10;1.00;;;;;;5079521;28;20097;-72
2023/05/29 06:31:07;;;;;;;9.55;2.28;;;13.10;1.00;;;;;;5096342;28;20032;-72
2023/05/29 06:33:33;;;;;;;10.88;2.38;;;13.00;1.00;;;;;;5062716;28;20032;-72
2023/05/29 06:35:59;;;;;;;16.23;2.85;;;13.00;1.00;;;;;;5079471;28;20039;-71
2023/05/29 06:38:25;;;;;;;11.15;2.33;;;13.00;1.00;;;;;;5096115;28;20111;-71
2023/05/29 06:40:51;;;;;;;11.35;2.40;;;13.30;1.00;;;;;;5079615;28;20043;-72
2023/05/29 06:43:16;;;;;;;10.43;2.67;;;13.50;1.00;;;;;;5096084;28;20055;-72
2023/05/29 06:45:47;;;;;;;12.13;2.50;;;13.70;1.00;;;;;;5096424;28;20426;-73
2023/05/29 06:48:13;;;;;;;11.15;2.22;;;13.80;1.00;;;;;;5096149;28;20028;-69
2023/05/29 06:50:39;;;;;;;11.48;2.47;;;14.00;1.00;;;;;;5096203;28;20020;-74
2023/05/29 06:53:25;;;;;;;11.88;2.20;;;14.00;1.00;;;;;;5082265;28;20383;-71
2023/05/29 06:55:55;;;;;;;10.63;2.10;;;14.00;1.00;;;;;;5096025;28;20299;-72
2023/05/29 06:58:20;;;;;;;9.40;2.30;;;13.90;1.00;;;;;;5096026;28;20123;-73
2023/05/29 07:00:46;;;;;;;11.93;2.20;;;14.20;1.00;;;;;;5096124;28;20036;-73
2023/05/29 07:03:28;;;;;;;16.17;2.83;;;14.30;1.00;;;;;;5096121;28;20046;-75
2023/05/29 07:05:54;;;;;;;10.25;1.88;;;14.40;1.00;;;;;;5096850;28;20039;-72
2023/05/29 07:08:21;;;;;;;11.80;2.33;;;14.30;1.00;;;;;;5095834;28;20311;-71
2023/05/29 07:10:48;;;;;;;9.40;2.00;;;14.20;1.00;;;;;;5095903;28;20032;-72
2023/05/29 07:13:16;;;;;;;9.63;2.13;;;14.30;1.00;;;;;;5047899;28;20089;-71
2023/05/29 07:15:42;;;;;;;10.10;2.22;;;14.50;1.00;;;;;;5100573;28;20299;-71
2023/05/29 07:18:08;;;;;;;15.45;2.80;;;14.60;1.00;;;;;;5099615;28;20028;-72
2023/05/29 07:20:34;;;;;;;12.02;2.65;;;14.60;1.00;;;;;;5099658;28;20028;-73
2023/05/29 07:23:02;;;;;;;11.98;2.53;;;14.50;1.00;;;;;;5083395;28;20032;-74
2023/05/29 07:25:28;;;;;;;13.95;2.28;;;14.70;1.00;;;;;;5082763;28;20391;-72
2023/05/29 07:27:54;;;;;;;15.43;2.70;;;14.60;1.00;;;;;;5082722;28;20020;-70
2023/05/29 07:30:20;;;;;;;9.43;2.40;;;14.50;1.00;;;;;;5099573;28;20038;-72
2023/05/29 07:32:46;;;;;;;13.18;2.67;;;14.70;1.00;;;;;;5099463;28;20039;-72
2023/05/29 07:35:13;;;;;;;13.70;2.70;;;14.70;1.00;;;;;;5082517;28;20028;-72
2023/05/29 07:37:38;;;;;;;12.20;2.20;;;14.70;1.00;;;;;;5100191;28;20394;-73
2023/05/29 07:40:05;;;;;;;18.55;2.60;;;14.80;1.00;;;;;;5082382;28;20097;-72
2023/05/29 07:42:51;;;;;;;8.15;1.75;;;15.10;1.00;;;;;;5099368;28;20311;-71
2023/05/29 07:45:17;;;;;;;10.85;2.38;;;15.20;1.00;;;;;;5082345;28;20043;-72
2023/05/29 07:47:43;;;;;;;10.52;2.85;;;15.40;1.00;;;;;;5099281;28;20039;-72
2023/05/29 07:50:11;;;;;;;12.18;3.00;;;15.30;1.00;;;;;;5098804;28;20089;-72
2023/05/29 07:52:37;;;;;;;14.18;2.42;;;15.30;1.00;;;;;;5098976;28;20143;-73
2023/05/29 07:55:03;;;;;;;9.80;2.00;;;15.40;1.00;;;;;;5098951;28;20029;-74
2023/05/29 07:57:30;;;;;;;13.30;2.35;;;15.60;1.00;;;;;;5098800;28;20395;-74
2023/05/29 07:59:58;;;;;;;14.70;2.42;;;15.60;1.00;;;;;;5098875;28;20043;-74
2023/05/29 08:02:24;;;;;;;8.23;1.90;;;15.60;1.00;;;;;;5098813;28;20292;-75
2023/05/29 08:05:10;;;;;;;10.02;2.00;;;15.70;1.00;;;;;;5099319;28;20055;-74
2023/05/29 08:07:37;;;;;;;9.57;2.13;;;15.90;1.00;;;;;;5098748;28;20040;-71
2023/05/29 08:10:05;;;;;;;8.73;2.25;;;16.00;1.00;;;;;;5098956;28;20097;-72
2023/05/29 08:12:31;;;;;;;8.10;2.17;;;16.20;1.00;;;;;;5082181;28;20097;-74
2023/05/29 08:14:59;;;;;;;9.00;2.25;;;16.00;1.00;;;;;;5098615;28;20292;-71
2023/05/29 08:17:25;;;;;;;10.70;2.60;;;16.10;99.90;;;;;;5098599;28;20059;-74
2023/05/29 08:19:51;;;;;;;9.13;2.17;;;16.20;99.90;;;;;;5098538;28;20043;-74
2023/05/29 08:22:16;;;;;;;11.65;2.00;;;16.10;99.90;;;;;;5065015;28;20297;-74
2023/05/29 08:24:42;;;;;;;8.20;1.90;;;16.10;99.90;;;;;;5098579;28;20032;-71
2023/05/29 08:27:08;;;;;;;7.28;2.17;;;16.10;99.90;;;;;;5099052;28;20115;-72
2023/05/29 08:29:35;;;;;;;8.98;2.35;;;15.90;99.90;;;;;;5098309;28;20034;-71
2023/05/29 08:32:01;;;;;;;12.75;2.47;;;15.80;99.90;;;;;;5098144;28;20319;-72
2023/05/29 08:34:27;;;;;;;11.80;1.63;;;15.90;1.00;;;;;;5099319;28;20034;-72
2023/05/29 08:36:54;;;;;;;8.30;2.00;;;16.20;1.00;;;;;;5098628;28;20043;-73
2023/05/29 08:39:23;;;;;;;10.13;2.08;;;16.50;1.00;;;;;;5098847;28;20344;-74
2023/05/29 08:42:07;;;;;;;9.43;1.88;;;16.70;99.90;;;;;;5081372;28;20036;-72
2023/05/29 08:44:33;;;;;;;9.35;1.98;;;16.80;91.80;;;;;;5098720;28;20281;-73
2023/05/29 08:47:03;;;;;;;10.60;2.30;;;16.80;90.00;;;;;;5098815;28;20024;-71
2023/05/29 08:49:34;;;;;;;12.15;2.30;;;16.80;99.90;;;;;;5098214;28;20077;-70
2023/05/29 08:52:12;;;;;;;10.35;2.15;;;16.80;32.70;;;;;;5098138;28;20346;-71
2023/05/29 08:54:38;;;;;;;8.77;2.20;;;16.50;99.90;;;;;;5097873;28;20035;-71
2023/05/29 08:57:05;;;;;;;11.38;2.00;;;16.60;99.90;;;;;;5081043;28;20035;-72
2023/05/29 08:59:31;;;;;;;11.68;2.42;;;16.70;99.90;;;;;;5098574;28;20110;-73
2023/05/29 09:01:57;;;;;;;9.35;1.85;;;17.00;1.00;;;;;;5099067;28;20088;-72
2023/05/29 09:04:23;;;;;;;7.57;2.17;;;17.20;1.00;;;;;;5098398;28;20134;-73
2023/05/29 09:06:52;;;;;;;10.32;2.40;;;17.50;1.00;;;;;;5098375;28;20348;-73
2023/05/29 09:09:18;;;;;;;12.23;2.28;;;17.70;1.00;;;;;;5098420;28;20028;-71
2023/05/29 09:11:44;;;;;;;8.35;1.63;;;17.80;99.90;;;;;;5064054;28;20028;-71
2023/05/29 09:14:36;;;;;;;7.35;2.25;;;17.80;99.90;;;;;;5097503;28;20066;-69
2023/05/29 09:17:03;;;;;;;8.70;1.92;;;17.80;14.10;;;;;;5097481;28;20089;-72
2023/05/29 09:19:29;;;;;;;8.40;2.08;;;17.80;99.90;;;;;;5097882;28;20353;-72
2023/05/29 09:22:05;;;;;;;8.65;2.13;;;17.90;99.90;;;;;;5098887;28;20415;-73
2023/05/29 09:24:41;;;;;;;8.02;1.85;;;17.80;99.90;;;;;;5097830;28;20036;-72
2023/05/29 09:27:08;;;;;;;9.45;2.33;;;17.60;1.00;;;;;;5097483;28;20036;-70
2023/05/29 09:29:41;;;;;;;7.53;1.90;;;17.50;1.00;;;;;;5097982;28;20016;-71
2023/05/29 09:32:09;;;;;;;9.65;2.20;;;17.30;1.00;;;;;;5097858;28;20367;-71
2023/05/29 09:34:35;;;;;;;8.13;2.03;;;17.60;1.00;;;;;;5097099;28;20118;-71
2023/05/29 09:37:07;;;;;;;9.02;1.70;;;17.80;1.00;;;;;;5096295;28;20174;-69
2023/05/29 09:39:53;;;;;;;8.88;2.00;;;17.90;1.00;;;;;;5097594;28;20468;-72
2023/05/29 09:42:19;;;;;;;8.77;2.10;;;17.90;1.00;;;;;;5098259;28;20197;-70
2023/05/29 09:44:51;;;;;;;8.43;2.30;;;18.10;99.90;;;;;;5098062;28;20457;-71
2023/05/29 09:47:18;;;;;;;7.78;1.63;;;18.00;99.90;;;;;;5097120;28;20452;-71
2023/05/29 09:49:48;;;;;;;9.10;2.20;;;17.90;99.90;;;;;;5080171;28;20040;-72
2023/05/29 09:52:20;;;;;;;10.27;1.95;;;18.10;1.00;;;;;;5096750;28;20197;-71
2023/05/29 09:54:46;;;;;;;7.28;1.80;;;18.50;99.90;;;;;;5097184;28;20020;-71
2023/05/29 09:57:16;;;;;;;8.20;2.00;;;18.70;1.00;;;;;;5097395;28;20114;-71
2023/05/29 09:59:51;;;;;;;8.73;1.83;;;18.70;1.00;;;;;;5097725;28;20103;-70
2023/05/29 10:02:17;;;;;;;12.25;2.40;;;18.50;1.00;;;;;;5097401;28;20047;-71
2023/05/29 10:04:44;;;;;;;10.38;2.28;;;18.60;99.90;;;;;;5096473;28;20032;-70
2023/05/29 10:07:27;;;;;;;8.55;2.35;;;18.70;1.00;;;;;;5096269;28;20123;-71
2023/05/29 10:10:01;;;;;;;6.50;1.80;;;18.80;99.90;;;;;;5079763;28;20035;-71
2023/05/29 10:12:28;;;;;;;7.78;2.13;;;18.90;1.00;;;;;;5097419;28;20042;-72
2023/05/29 10:14:58;;;;;;;8.40;2.00;;;19.30;99.90;;;;;;5096569;28;20043;-72
2023/05/29 10:17:31;;;;;;;8.80;1.90;;;19.60;1.00;;;;;;5097911;28;20330;-71
2023/05/29 10:20:00;;;;;;;7.22;2.08;;;19.80;99.90;;;;;;5096422;28;20122;-71
2023/05/29 10:22:27;;;;;;;8.70;1.80;;;19.70;99.90;;;;;;5097190;28;20051;-71
2023/05/29 10:24:55;;;;;;;6.32;1.65;;;19.80;1.00;;;;;;5079352;28;20046;-72
2023/05/29 10:27:21;;;;;;;8.15;1.90;;;19.70;99.90;;;;;;5096303;28;20062;-71
2023/05/29 10:30:10;;;;;;;5.38;1.77;;;20.00;1.00;;;;;;5097168;28;20083;-72
2023/05/29 10:33:07;;;;;;;7.50;1.77;;;19.80;99.90;;;;;;5097493;28;20017;-71
2023/05/29 10:35:53;;;;;;;8.25;1.70;;;19.50;46.70;;;;;;5079483;28;20291;-72
2023/05/29 10:38:19;;;;;;;11.70;2.35;;;19.70;99.90;;;;;;5096306;28;20108;-71
2023/05/29 10:40:45;;;;;;;9.85;2.38;;;20.00;1.00;;;;;;5097147;28;20047;-72
2023/05/29 10:43:33;;;;;;;8.90;1.92;;;20.30;99.90;;;;;;5079489;28;20025;-71
2023/05/29 10:46:00;;;;;;;10.43;2.08;;;20.20;1.00;;;;;;5096352;28;20033;-72
2023/05/29 10:48:28;;;;;;;8.90;2.17;;;20.30;1.00;;;;;;5099344;28;20028;-71
2023/05/29 10:50:55;;;;;;;8.18;1.65;;;20.60;1.00;;;;;;5100250;28;20151;-71
2023/05/29 10:53:30;;;;;;;11.23;2.13;;;20.40;99.90;;;;;;5100949;28;20075;-72
2023/05/29 10:55:58;;;;;;;4.35;1.50;;;20.70;99.90;;;;;;5100367;28;20082;-71
2023/05/29 10:58:26;;;;;;;7.22;1.90;;;21.00;58.80;;;;;;5100465;28;20040;-72
2023/05/29 11:00:55;;;;;;;4.47;1.48;;;21.30;1.00;;;;;;5100386;28;20032;-73
2023/05/29 11:03:31;;;;;;;6.13;1.80;;;22.30;99.90;;;;;;5100175;28;20028;-72
2023/05/29 11:06:01;;;;;;;10.40;2.47;;;23.30;96.10;;;;;;5100723;28;20056;-72
2023/05/29 11:08:46;;;;;;;8.13;2.00;;;23.90;1.00;;;;;;5099801;28;20093;-72
2023/05/29 11:11:14;;;;;;;6.13;2.00;;;24.50;99.90;;;;;;5100539;28;20391;-62
2023/05/29 11:13:42;;;;;;;6.20;1.65;;;24.30;99.90;;;;;;5100664;28;20024;-70
2023/05/29 11:16:25;;;;;;;4.97;1.52;;;25.30;48.40;;;;;;5100492;28;20028;-71
2023/05/29 11:18:52;;;;;;;7.25;2.05;;;25.00;1.00;;;;;;5099736;28;20140;-72
2023/05/29 11:21:39;;;;;;;7.00;1.88;;;25.60;1.00;;;;;;5083002;28;20024;-72
2023/05/29 11:24:06;;;;;;;6.43;2.17;;;27.00;1.00;;;;;;5100188;28;20044;-74
2023/05/29 11:26:33;;;;;;;7.05;2.28;;;27.80;1.00;;;;;;5100109;28;20085;-72
2023/05/29 11:29:00;;;;;;;5.90;2.03;;;28.20;1.00;;;;;;5099637;28;20024;-72
2023/05/29 11:31:31;;;;;;;6.03;1.83;;;28.80;99.90;;;;;;5099458;28;20024;-72
2023/05/29 11:34:00;;;;;;;6.78;2.00;;;29.00;99.90;;;;;;5100160;28;20113;-70
2023/05/29 11:36:27;;;;;;;5.75;2.30;;;28.70;99.90;;;;;;5099517;28;20024;-71
2023/05/29 11:38:53;;;;;;;4.32;1.73;;;28.70;99.90;;;;;;5099416;28;20100;-71
2023/05/29 11:41:19;;;;;;;8.00;2.42;;;27.90;99.90;;;;;;5100037;28;20394;-72
2023/05/29 11:44:01;;;;;;;5.28;1.95;;;27.40;99.90;;;;;;5099913;28;20035;-71
2023/05/29 11:46:30;;;;;;;6.03;2.15;;;26.10;99.90;;;;;;5099465;28;20032;-71
2023/05/29 11:48:56;;;;;;;9.07;2.53;;;26.50;99.90;;;;;;5101253;28;20036;-72
2023/05/29 11:51:22;;;;;;;6.28;1.98;;;27.00;99.90;;;;;;5099937;28;20023;-73
2023/05/29 11:53:49;;;;;;;5.25;1.77;;;28.40;99.90;;;;;;5100018;28;20046;-72
2023/05/29 11:56:15;;;;;;;4.95;1.83;;;28.90;99.90;;;;;;5082262;28;20044;-72
2023/05/29 11:58:42;;;;;;;5.38;1.83;;;29.60;99.90;;;;;;5065184;28;20024;-72
2023/05/29 12:01:09;;;;;;;4.18;1.73;;;29.90;99.90;;;;;;5098555;28;20031;-72
2023/05/29 12:03:45;;;;;;;5.50;1.70;;;29.60;99.90;;;;;;5098770;28;20047;-72
2023/05/29 12:06:11;;;;;;;8.68;2.03;;;29.20;99.90;;;;;;5099799;28;20024;-73
2023/05/29 12:08:37;;;;;;;5.38;2.20;;;29.80;99.90;;;;;;5099411;28;20055;-72
2023/05/29 12:11:04;;;;;;;9.00;2.15;;;30.40;99.90;;;;;;5099613;28;20304;-73
2023/05/29 12:13:29;;;;;;;7.40;1.92;;;31.10;99.90;;;;;;5099728;28;20068;-73
2023/05/29 12:16:02;;;;;;;5.80;1.90;;;31.30;99.90;;;;;;5098519;28;20396;-74
2023/05/29 12:18:29;;;;;;;5.88;1.98;;;32.00;99.90;;;;;;5099473;28;20032;-73
2023/05/29 12:21:02;;;;;;;9.35;2.40;;;32.50;99.90;;;;;;5099355;28;20097;-72
2023/05/29 12:23:31;;;;;;;6.60;2.00;;;31.10;99.90;;;;;;5099194;28;20042;-72
2023/05/29 12:25:58;;;;;;;5.57;1.98;;;30.20;99.90;;;;;;5098742;28;20028;-72
2023/05/29 12:28:25;;;;;;;6.03;2.00;;;30.90;99.90;;;;;;5099205;28;20020;-72
2023/05/29 12:30:59;;;;;;;6.57;1.75;;;29.60;99.90;;;;;;5099168;28;20032;-73
2023/05/29 12:33:28;;;;;;;10.70;2.30;;;29.30;99.90;;;;;;5099180;28;20115;-74
2023/05/29 12:35:54;;;;;;;6.78;2.15;;;30.60;99.90;;;;;;5081422;28;20028;-72
2023/05/29 12:38:22;;;;;;;7.93;2.08;;;30.90;99.90;;;;;;5098535;28;20303;-71
2023/05/29 12:40:49;;;;;;;4.90;1.95;;;29.80;99.90;;;;;;5098321;28;20088;-72
2023/05/29 12:43:16;;;;;;;7.20;2.15;;;31.10;99.90;;;;;;5098839;28;20071;-72
2023/05/29 12:45:42;;;;;;;6.38;2.15;;;31.40;99.90;;;;;;5098236;28;20028;-71
2023/05/29 12:48:10;;;;;;;7.13;2.10;;;29.70;99.90;;;;;;5098877;28;20024;-72